Time;durP1;ratioP1;P1;durP2;ratioP2;P2;SDS_P1;SDS_P2;PMS_P1;PMS_P2;Temp;Humidity;BMP_temperature;BMP_pressure;BME280_temperature;BME280_humidity;BME280_pressure;Samples;Min_cycle;Max_cycle;Signal;HPM_P1;HPM_P2
2022/04/06 00:01:21;;;;;;;24.42;14.45;;;;;;;6.10;62.13;99731.16;5131282;27;20106;-32
2022/04/06 00:03:47;;;;;;;23.88;14.27;;;;;;;6.06;62.04;99756.38;5131396;27;20475;-30
2022/04/06 00:06:12;;;;;;;21.55;11.40;;;;;;;5.84;63.25;99756.44;5131845;27;20023;-31
2022/04/06 00:08:38;;;;;;;14.68;9.35;;;;;;;5.96;64.02;99757.53;5131188;27;20054;-30
2022/04/06 00:11:03;;;;;;;15.20;9.13;;;;;;;5.99;63.80;99757.16;5131053;27;20154;-30
2022/04/06 00:13:29;;;;;;;12.38;7.95;;;;;;;5.78;64.25;99754.56;5131339;27;20054;-29
2022/04/06 00:15:55;;;;;;;17.00;8.77;;;;;;;5.80;64.90;99747.25;5112446;27;20034;-29
2022/04/06 00:18:21;;;;;;;13.25;7.93;;;;;;;5.70;64.62;99730.91;5131106;27;20031;-29
2022/04/06 00:20:47;;;;;;;16.92;8.07;;;;;;;5.97;63.13;99743.31;5130906;27;20019;-29
2022/04/06 00:23:12;;;;;;;13.13;7.50;;;;;;;6.01;63.10;99741.09;5112509;27;20019;-33
2022/04/06 00:25:38;;;;;;;11.93;7.10;;;;;;;5.79;64.05;99746.44;5130898;27;20027;-31
2022/04/06 00:28:03;;;;;;;12.43;7.47;;;;;;;5.76;65.30;99757.44;5130869;27;20076;-30
2022/04/06 00:30:29;;;;;;;14.60;8.35;;;;;;;5.56;65.80;99746.72;5130444;27;20034;-31
2022/04/06 00:32:54;;;;;;;11.70;7.57;;;;;;;5.63;64.80;99762.63;5130580;27;20031;-31
2022/04/06 00:35:29;;;;;;;13.68;7.80;;;;;;;5.19;66.07;99763.72;5112474;27;20042;-32
2022/04/06 00:38:00;;;;;;;16.02;7.80;;;;;;;5.22;66.00;99739.56;5130810;27;20031;-33
2022/04/06 00:40:26;;;;;;;16.08;9.25;;;;;;;5.39;63.68;99748.00;5112035;27;20028;-30
2022/04/06 00:42:53;;;;;;;14.90;8.65;;;;;;;5.59;63.31;99764.84;5111800;27;20031;-30
2022/04/06 00:45:20;;;;;;;13.32;8.32;;;;;;;5.66;64.03;99761.41;5111984;27;20038;-29
2022/04/06 00:47:46;;;;;;;14.52;8.50;;;;;;;5.67;63.62;99760.41;5112139;27;20062;-29
2022/04/06 00:50:12;;;;;;;13.88;8.32;;;;;;;5.60;63.22;99740.03;5111102;28;20027;-29
2022/04/06 00:52:39;;;;;;;18.05;9.68;;;;;;;6.03;62.72;99757.59;5130008;27;20083;-32
2022/04/06 00:55:06;;;;;;;15.52;9.50;;;;;;;6.01;62.13;99744.56;5130057;27;20027;-29
2022/04/06 00:57:32;;;;;;;16.85;9.95;;;;;;;5.83;63.11;99752.16;5111483;27;20194;-33
2022/04/06 00:59:58;;;;;;;18.13;10.98;;;;;;;6.31;62.43;99781.31;5130611;27;20042;-29
2022/04/06 01:02:25;;;;;;;16.80;11.80;;;;;;;5.96;62.76;99756.72;5130174;27;20026;-29
2022/04/06 01:04:51;;;;;;;18.83;12.38;;;;;;;6.33;61.99;99767.88;5111841;27;20031;-32
2022/04/06 01:07:18;;;;;;;16.02;11.80;;;;;;;6.27;62.42;99769.50;5111574;27;20035;-31
2022/04/06 01:09:45;;;;;;;14.73;10.65;;;;;;;5.85;63.47;99771.31;5111713;27;20514;-29
2022/04/06 01:12:12;;;;;;;15.13;9.15;;;;;;;5.76;64.11;99769.81;5129771;27;20038;-32
2022/04/06 01:14:38;;;;;;;13.90;9.02;;;;;;;5.28;64.86;99791.66;5111657;27;20023;-32
2022/04/06 01:17:07;;;;;;;12.48;9.25;;;;;;;5.79;63.08;99798.56;5129919;27;20035;-33
2022/04/06 01:19:43;;;;;;;16.55;9.38;;;;;;;5.39;63.85;99777.09;5111358;27;20554;-30
2022/04/06 01:22:16;;;;;;;15.13;9.30;;;;;;;5.08;64.40;99765.06;5129872;27;20043;-29
2022/04/06 01:24:44;;;;;;;14.48;8.35;;;;;;;4.72;66.00;99750.13;5111175;27;20034;-31
2022/04/06 01:27:10;;;;;;;17.15;9.25;;;;;;;4.66;66.34;99768.53;5111005;27;20038;-29
2022/04/06 01:29:36;;;;;;;14.68;9.38;;;;;;;4.73;67.31;99783.44;5110906;27;20027;-38
2022/04/06 01:32:11;;;;;;;15.32;9.50;;;;;;;5.11;65.82;99788.50;5111012;27;20031;-28
2022/04/06 01:34:38;;;;;;;15.88;9.98;;;;;;;5.55;64.27;99786.59;5110488;27;20079;-29
2022/04/06 01:37:05;;;;;;;18.63;10.02;;;;;;;5.52;64.10;99771.94;5110538;27;20027;-28
2022/04/06 01:39:35;;;;;;;19.17;11.45;;;;;;;5.89;62.30;99777.03;5110542;27;20103;-30
2022/04/06 01:42:04;;;;;;;21.98;12.73;;;;;;;5.87;62.83;99782.53;5110795;27;20442;-29
2022/04/06 01:44:31;;;;;;;16.98;11.02;;;;;;;5.77;62.29;99768.81;5110423;27;20023;-29
2022/04/06 01:46:56;;;;;;;18.15;11.50;;;;;;;5.57;63.45;99790.66;5127712;27;20055;-30
2022/04/06 01:52:12;;;;;;;16.85;10.93;;;;;;;4.99;65.69;99797.94;5113783;27;20103;-32
2022/04/06 01:55:00;;;;;;;15.55;10.52;;;;;;;4.77;66.55;99797.91;5110458;27;20463;-29
2022/04/06 01:57:26;;;;;;;21.33;11.98;;;;;;;5.32;65.97;99781.53;5128915;27;20088;-28
2022/04/06 01:59:52;;;;;;;20.85;13.27;;;;;;;5.75;63.43;99798.13;5128918;27;20062;-32
2022/04/06 02:02:19;;;;;;;27.70;14.10;;;;;;;5.40;64.04;99773.47;5128417;27;20027;-33
2022/04/06 02:04:45;;;;;;;25.73;14.50;;;;;;;5.63;63.13;99797.81;5128905;27;20027;-29
2022/04/06 02:07:11;;;;;;;15.40;9.15;;;;;;;4.38;64.71;99795.66;5110293;27;20027;-29
2022/04/06 02:09:39;;;;;;;14.50;9.15;;;;;;;3.95;66.49;99806.06;5110214;27;20709;-35
2022/04/06 02:12:06;;;;;;;17.20;9.27;;;;;;;4.61;64.96;99800.78;5110453;27;20514;-30
2022/04/06 02:14:32;;;;;;;14.52;8.70;;;;;;;4.34;66.25;99797.03;5128624;27;20558;-29
2022/04/06 02:16:58;;;;;;;14.57;9.45;;;;;;;4.04;67.27;99802.31;5128450;27;20496;-30
2022/04/06 02:19:23;;;;;;;14.90;9.07;;;;;;;3.70;67.91;99782.59;5128746;27;20066;-30
2022/04/06 02:21:49;;;;;;;15.18;7.78;;;;;;;3.83;67.53;99805.69;5128640;27;20019;-31
2022/04/06 02:24:14;;;;;;;37.63;28.80;;;;;;;3.83;67.12;99795.94;5128773;27;20026;-29
2022/04/06 02:26:40;;;;;;;27.13;19.25;;;;;;;4.55;65.59;99801.53;5128522;27;20471;-30
2022/04/06 02:29:05;;;;;;;25.10;15.15;;;;;;;4.42;66.15;99804.84;5128305;28;20094;-33
2022/04/06 02:31:31;;;;;;;18.05;12.57;;;;;;;4.16;67.40;99813.25;5128266;27;20503;-31
2022/04/06 02:33:57;;;;;;;21.23;12.80;;;;;;;4.24;66.82;99815.78;5128525;28;20039;-29
2022/04/06 02:36:22;;;;;;;24.00;12.10;;;;;;;4.39;66.09;99808.69;5128596;28;20039;-31
2022/04/06 02:38:48;;;;;;;22.65;13.35;;;;;;;4.52;65.77;99812.47;5128530;28;20067;-36
2022/04/06 02:41:14;;;;;;;19.13;12.10;;;;;;;4.51;66.01;99814.28;5128524;28;20027;-35
2022/04/06 02:43:40;;;;;;;19.45;11.00;;;;;;;4.74;65.08;99795.66;5128096;28;20447;-29
2022/04/06 02:46:05;;;;;;;21.80;11.70;;;;;;;5.36;63.24;99819.81;5109653;28;20042;-30
2022/04/06 02:48:31;;;;;;;21.67;12.05;;;;;;;5.31;62.70;99796.59;5128351;28;20119;-28
2022/04/06 02:50:56;;;;;;;23.58;13.80;;;;;;;4.93;64.20;99827.75;5128159;28;20611;-29
2022/04/06 02:53:22;;;;;;;21.17;11.50;;;;;;;4.74;64.91;99806.22;5128442;28;20027;-28
2022/04/06 02:55:48;;;;;;;23.20;11.63;;;;;;;4.46;65.21;99806.09;5109915;28;20023;-29
2022/04/06 02:58:14;;;;;;;20.30;11.45;;;;;;;4.55;64.84;99817.38;5128238;28;20033;-32
2022/04/06 03:00:39;;;;;;;23.45;11.75;;;;;;;4.26;66.09;99815.59;5109622;28;20039;-31
2022/04/06 03:03:05;;;;;;;29.25;17.48;;;;;;;4.57;66.55;99828.56;5128350;28;20058;-30
2022/04/06 03:05:30;;;;;;;29.35;15.93;;;;;;;4.62;65.69;99823.56;5128435;28;20019;-33
2022/04/06 03:07:56;;;;;;;28.80;15.57;;;;;;;4.51;65.70;99850.44;5128456;28;20020;-30
2022/04/06 03:10:22;;;;;;;31.27;17.80;;;;;;;3.91;67.81;99841.72;5128061;28;20023;-28
2022/04/06 03:12:47;;;;;;;12.10;7.45;;;;;;;3.06;67.14;99842.78;5109456;27;20032;-31
2022/04/06 03:15:14;;;;;;;12.40;7.80;;;;;;;2.59;69.24;99849.81;5130897;27;20042;-34
2022/04/06 03:17:41;;;;;;;16.10;9.50;;;;;;;3.08;67.96;99827.63;5130820;27;20077;-29
2022/04/06 03:20:08;;;;;;;19.67;10.93;;;;;;;3.38;67.52;99849.63;5113516;27;20027;-32
2022/04/06 03:22:34;;;;;;;23.05;10.98;;;;;;;3.27;68.45;99839.50;5113442;27;20117;-34
2022/04/06 03:24:59;;;;;;;21.23;12.43;;;;;;;3.13;68.10;99834.00;5131817;27;20033;-29
2022/04/06 03:27:25;;;;;;;35.03;20.23;;;;;;;3.56;67.24;99836.94;5132020;27;20051;-28
2022/04/06 03:29:50;;;;;;;57.35;30.75;;;;;;;3.69;68.97;99846.88;5131716;27;20047;-29
2022/04/06 03:32:16;;;;;;;62.15;32.63;;;;;;;3.97;68.06;99849.72;5131809;27;20023;-28
2022/04/06 03:34:41;;;;;;;37.85;21.00;;;;;;;4.02;68.13;99860.59;5130797;27;20116;-31
2022/04/06 03:37:07;;;;;;;30.80;16.70;;;;;;;4.22;67.88;99844.19;5130575;27;20305;-28
2022/04/06 03:39:32;;;;;;;25.20;13.45;;;;;;;3.88;68.44;99842.88;5131686;27;20466;-28
2022/04/06 03:41:59;;;;;;;26.08;15.48;;;;;;;3.85;68.89;99832.72;5113244;27;20150;-32
2022/04/06 03:44:25;;;;;;;20.80;13.25;;;;;;;3.71;70.08;99833.50;5131605;27;20134;-31
2022/04/06 03:46:50;;;;;;;27.83;15.80;;;;;;;3.94;69.28;99857.19;5131726;27;20109;-29
2022/04/06 03:49:16;;;;;;;18.88;13.90;;;;;;;3.88;69.86;99863.19;5131365;27;20034;-29
2022/04/06 03:51:43;;;;;;;23.20;14.45;;;;;;;3.97;68.83;99862.94;5131342;27;20143;-28
2022/04/06 03:54:09;;;;;;;22.65;12.98;;;;;;;4.13;68.19;99850.56;5112736;27;20144;-28
2022/04/06 03:56:34;;;;;;;20.70;13.48;;;;;;;4.05;68.41;99869.13;5112653;27;20031;-28
2022/04/06 03:59:00;;;;;;;21.30;13.27;;;;;;;3.72;69.59;99849.16;5129191;27;20035;-31
2022/04/06 04:01:25;;;;;;;21.17;12.93;;;;;;;3.96;69.38;99871.00;5131672;27;20031;-31
2022/04/06 04:03:51;;;;;;;23.70;12.57;;;;;;;4.16;68.90;99866.03;5131026;27;20040;-29
2022/04/06 04:06:16;;;;;;;21.95;12.95;;;;;;;4.39;68.23;99872.03;5131032;27;20023;-30
2022/04/06 04:08:41;;;;;;;22.75;12.40;;;;;;;4.22;67.49;99860.03;5112484;27;20501;-30
2022/04/06 04:11:08;;;;;;;25.92;13.55;;;;;;;4.48;67.71;99875.41;5130645;27;20034;-29
2022/04/06 04:13:34;;;;;;;23.27;13.63;;;;;;;4.40;68.10;99883.41;5130785;27;20025;-29
2022/04/06 04:15:59;;;;;;;23.83;14.00;;;;;;;4.23;68.27;99888.88;5130795;27;20039;-33
2022/04/06 04:18:25;;;;;;;20.33;11.80;;;;;;;3.81;69.76;99889.47;5131127;27;20034;-28
2022/04/06 04:21:31;;;;;;;24.60;12.00;;;;;;;4.20;68.82;99885.78;5130659;27;20031;-32
2022/04/06 04:23:35;;;;;;;21.73;12.15;;;;;;;4.47;68.57;99875.56;5130823;27;20023;-29
2022/04/06 04:26:01;;;;;;;20.23;12.10;;;;;;;4.47;68.64;99889.59;5130035;27;20031;-35
2022/04/06 04:28:26;;;;;;;21.90;10.70;;;;;;;4.48;68.83;99870.13;5131203;27;20031;-28
2022/04/06 04:30:52;;;;;;;18.90;11.65;;;;;;;4.83;67.25;99865.03;5111778;27;20031;-30
2022/04/06 04:33:17;;;;;;;19.60;10.85;;;;;;;5.15;66.67;99886.72;5130424;27;20073;-29
2022/04/06 04:35:43;;;;;;;17.98;11.32;;;;;;;5.27;65.79;99889.69;5130645;27;20118;-29
2022/04/06 04:38:08;;;;;;;25.08;13.05;;;;;;;5.36;65.82;99899.13;5130667;27;20022;-28
2022/04/06 04:40:34;;;;;;;34.17;16.45;;;;;;;4.91;67.02;99901.13;5130169;27;20031;-29
2022/04/06 04:42:59;;;;;;;36.78;14.98;;;;;;;4.86;66.20;99888.44;5111670;27;20030;-29
2022/04/06 04:45:25;;;;;;;34.97;16.58;;;;;;;5.10;66.04;99889.91;5130551;27;20030;-28
2022/04/06 04:47:50;;;;;;;32.92;17.33;;;;;;;5.11;67.09;99915.38;5130469;27;20473;-29
2022/04/06 04:50:19;;;;;;;38.70;15.23;;;;;;;4.88;67.20;99906.75;5130328;27;20402;-31
2022/04/06 04:52:45;;;;;;;28.25;13.55;;;;;;;5.04;67.80;99895.97;5111615;27;20571;-29
2022/04/06 04:55:10;;;;;;;32.70;16.23;;;;;;;5.23;67.18;99905.94;5111211;27;20051;-29
2022/04/06 04:57:36;;;;;;;23.80;11.63;;;;;;;5.54;66.97;99923.31;5130429;27;20062;-30
2022/04/06 05:00:01;;;;;;;20.05;12.48;;;;;;;5.64;66.35;99907.94;5130051;27;20058;-32
2022/04/06 05:02:27;;;;;;;20.10;12.20;;;;;;;6.04;64.55;99902.16;5130185;27;20080;-28
2022/04/06 05:04:52;;;;;;;21.05;10.88;;;;;;;6.02;64.72;99907.66;5129866;27;20019;-31
2022/04/06 05:07:18;;;;;;;21.67;11.98;;;;;;;6.15;64.14;99924.63;5130008;27;20023;-28
2022/04/06 05:09:43;;;;;;;22.75;12.73;;;;;;;5.86;67.00;99931.72;5129481;27;20038;-28
2022/04/06 05:12:09;;;;;;;23.65;13.60;;;;;;;5.64;68.21;99929.13;5130015;27;20033;-28
2022/04/06 05:14:34;;;;;;;28.90;15.15;;;;;;;6.13;66.10;99910.78;5111240;27;20027;-29
2022/04/06 05:17:01;;;;;;;28.13;15.52;;;;;;;6.25;66.00;99919.81;5129616;27;20033;-28
2022/04/06 05:19:26;;;;;;;26.25;13.35;;;;;;;6.17;68.18;99922.59;5111376;27;20037;-28
2022/04/06 05:21:52;;;;;;;19.17;12.68;;;;;;;6.42;67.90;99939.69;5129652;27;20402;-33
2022/04/06 05:24:17;;;;;;;17.20;11.43;;;;;;;6.80;67.41;99934.00;5129498;27;20110;-28
2022/04/06 05:26:43;;;;;;;18.30;11.35;;;;;;;6.56;67.83;99937.09;5111321;27;20075;-28
2022/04/06 05:29:08;;;;;;;20.38;11.70;;;;;;;6.59;68.03;99926.13;5129480;27;20465;-29
2022/04/06 05:31:34;;;;;;;18.33;10.52;;;;;;;6.77;67.11;99926.41;5129288;27;20084;-29
2022/04/06 05:33:59;;;;;;;18.38;11.05;;;;;;;6.94;67.65;99952.59;5129220;27;20051;-33
2022/04/06 05:36:28;;;;;;;18.83;12.27;;;;;;;6.64;69.47;99936.97;5128523;27;20024;-37
2022/04/06 05:38:54;;;;;;;20.13;11.82;;;;;;;7.04;70.04;99945.09;5128867;27;20102;-29
2022/04/06 05:41:19;;;;;;;18.33;12.13;;;;;;;7.31;68.47;99939.84;5110927;27;20477;-30
2022/04/06 05:43:45;;;;;;;18.55;12.35;;;;;;;7.43;67.71;99948.88;5129337;27;20091;-31
2022/04/06 05:46:10;;;;;;;17.15;11.65;;;;;;;7.41;67.33;99935.78;5129318;27;20023;-30
2022/04/06 05:48:36;;;;;;;17.10;11.23;;;;;;;7.85;67.30;99954.84;5129224;27;20063;-37
2022/04/06 05:51:02;;;;;;;16.08;11.50;;;;;;;8.03;66.65;99949.75;5129118;27;20099;-30
2022/04/06 05:53:28;;;;;;;15.90;11.05;;;;;;;8.03;65.88;99955.06;5128765;27;20031;-30
2022/04/06 05:55:53;;;;;;;16.70;11.30;;;;;;;7.87;66.03;99960.78;5129126;27;20041;-31
2022/04/06 05:58:18;;;;;;;16.33;11.43;;;;;;;8.25;65.11;99954.81;5128990;27;20072;-29
2022/04/06 06:00:44;;;;;;;16.95;11.32;;;;;;;8.44;63.69;99946.06;5128857;27;20026;-28
2022/04/06 06:03:09;;;;;;;17.73;11.88;;;;;;;8.99;63.07;99979.41;5110185;27;20075;-31
2022/04/06 06:05:35;;;;;;;16.73;11.18;;;;;;;8.90;61.98;99970.06;5128772;27;20098;-28
2022/04/06 06:08:00;;;;;;;19.30;12.35;;;;;;;8.61;63.14;99962.34;5128677;27;20085;-30
2022/04/06 06:10:26;;;;;;;17.13;12.10;;;;;;;8.87;62.42;99965.97;5110056;27;20019;-29
2022/04/06 06:12:52;;;;;;;18.35;12.48;;;;;;;9.38;63.82;99956.34;5128621;27;20031;-28
2022/04/06 06:15:17;;;;;;;16.35;11.93;;;;;;;9.01;63.02;99972.88;5110150;27;20398;-32
2022/04/06 06:17:43;;;;;;;24.58;14.50;;;;;;;9.40;62.37;99943.63;5128775;27;20027;-29
2022/04/06 06:20:09;;;;;;;20.73;13.60;;;;;;;9.60;62.63;99952.31;5128595;27;20035;-31
2022/04/06 06:22:34;;;;;;;20.42;13.95;;;;;;;9.29;60.99;99962.91;5128192;27;20562;-32
2022/04/06 06:25:01;;;;;;;19.35;13.07;;;;;;;9.45;60.45;99957.91;5128542;27;20054;-29
2022/04/06 06:27:26;;;;;;;19.95;13.50;;;;;;;9.59;60.27;99973.81;5110009;28;20053;-28
2022/04/06 06:29:52;;;;;;;20.63;13.77;;;;;;;9.80;61.09;99961.97;5128550;27;20800;-32
2022/04/06 06:32:17;;;;;;;23.23;14.48;;;;;;;9.70;60.10;99943.00;5128427;27;20736;-31
2022/04/06 06:34:43;;;;;;;18.13;13.85;;;;;;;9.76;61.07;99964.25;5128357;28;20055;-31
2022/04/06 06:37:10;;;;;;;20.05;13.85;;;;;;;10.15;60.50;99966.84;5109350;28;20115;-32
2022/04/06 06:39:36;;;;;;;20.00;14.05;;;;;;;10.14;59.96;99960.69;5110120;28;20605;-30
2022/04/06 06:42:06;;;;;;;21.25;14.93;;;;;;;10.46;60.67;99968.63;5110074;28;20114;-31
2022/04/06 06:44:31;;;;;;;21.67;15.00;;;;;;;10.61;57.45;99976.28;5109906;28;20019;-29
2022/04/06 06:46:57;;;;;;;18.17;12.30;;;;;;;10.80;56.77;99971.75;5128213;28;20031;-29
2022/04/06 06:49:22;;;;;;;15.77;11.40;;;;;;;10.65;57.23;99964.94;5131531;27;20031;-33
2022/04/06 06:51:47;;;;;;;18.63;12.13;;;;;;;11.34;56.15;99975.41;5132392;27;20023;-29
2022/04/06 06:54:13;;;;;;;15.43;10.18;;;;;;;11.17;54.96;99980.53;5132884;27;20046;-30
2022/04/06 06:56:38;;;;;;;16.42;11.18;;;;;;;11.11;55.40;99972.63;5132937;27;20090;-29
2022/04/06 06:59:04;;;;;;;13.65;10.05;;;;;;;11.19;54.23;99978.47;5132352;27;20027;-30
2022/04/06 07:01:29;;;;;;;13.70;10.18;;;;;;;11.62;53.63;99977.47;5132595;27;20034;-33
2022/04/06 07:03:55;;;;;;;17.83;10.43;;;;;;;11.63;53.94;99986.31;5132522;27;20075;-29
2022/04/06 07:06:20;;;;;;;15.80;10.60;;;;;;;12.01;55.39;99985.97;5132301;27;20019;-30
2022/04/06 07:08:45;;;;;;;18.23;10.82;;;;;;;12.20;52.30;99991.22;5132567;27;20031;-29
2022/04/06 07:11:11;;;;;;;15.85;10.00;;;;;;;12.19;52.10;99981.56;5131946;27;20088;-31
2022/04/06 07:13:36;;;;;;;13.73;9.65;;;;;;;12.09;52.90;99976.78;5113872;27;20035;-32
2022/04/06 07:16:05;;;;;;;13.68;9.73;;;;;;;12.36;52.81;99993.22;5131974;27;20016;-31
2022/04/06 07:18:31;;;;;;;13.30;9.50;;;;;;;12.45;50.83;99991.81;5131879;27;20031;-29
2022/04/06 07:20:57;;;;;;;11.75;9.38;;;;;;;12.76;51.62;100002.38;5112747;27;20117;-31
2022/04/06 07:23:23;;;;;;;13.48;9.65;;;;;;;13.00;51.92;99992.44;5131987;27;20534;-28
2022/04/06 07:25:48;;;;;;;15.65;10.18;;;;;;;13.21;51.06;99999.81;5131974;27;20550;-33
2022/04/06 07:28:13;;;;;;;13.52;9.80;;;;;;;13.32;51.15;100000.06;5131869;27;20456;-30
2022/04/06 07:30:39;;;;;;;12.98;9.20;;;;;;;13.54;48.86;99987.63;5113028;27;20034;-31
2022/04/06 07:33:05;;;;;;;12.48;9.40;;;;;;;13.54;48.57;99982.25;5129686;27;20034;-29
2022/04/06 07:35:31;;;;;;;14.35;9.77;;;;;;;13.62;49.01;99992.59;5131557;27;20038;-31
2022/04/06 07:37:57;;;;;;;13.32;9.65;;;;;;;13.84;49.27;99987.34;5113231;27;20031;-29
2022/04/06 07:40:23;;;;;;;11.88;8.70;;;;;;;14.16;48.27;99988.66;5131376;27;20037;-30
2022/04/06 07:42:50;;;;;;;14.30;9.98;;;;;;;14.50;48.27;99997.47;5131224;27;20088;-29
2022/04/06 07:45:18;;;;;;;13.63;9.07;;;;;;;14.43;46.16;99986.13;5112773;27;20117;-29
2022/04/06 07:47:45;;;;;;;;;;;;;;;14.59;45.54;99998.75;5131882;27;20130;-29
2022/04/06 07:50:14;;;;;;;13.75;8.73;;;;;;;14.74;47.09;99998.13;5131083;27;19919;-36
2022/04/06 07:52:40;;;;;;;12.25;8.35;;;;;;;15.24;46.83;99985.56;5112867;27;20125;-29
2022/04/06 07:55:08;;;;;;;13.50;8.93;;;;;;;15.45;45.79;99973.19;5112439;27;20049;-29
2022/04/06 07:57:35;;;;;;;11.60;8.10;;;;;;;15.43;44.52;99975.31;5131267;27;20019;-31
2022/04/06 08:00:06;;;;;;;14.68;8.82;;;;;;;15.75;44.48;99988.84;5130564;27;20039;-31
2022/04/06 08:02:32;;;;;;;10.02;6.60;;;;;;;15.76;42.05;99989.63;5129570;27;20019;-28
2022/04/06 08:04:58;;;;;;;11.70;6.55;;;;;;;15.66;42.38;99985.75;5112046;27;20027;-28
2022/04/06 08:07:24;;;;;;;9.50;6.60;;;;;;;15.92;42.42;99994.09;5131050;27;20023;-29
2022/04/06 08:09:49;;;;;;;11.10;7.45;;;;;;;16.01;42.48;99989.03;5130938;27;20027;-36
2022/04/06 08:12:15;;;;;;;9.77;6.95;;;;;;;15.66;42.63;99974.19;5131186;27;20023;-29
2022/04/06 08:14:40;;;;;;;15.27;6.65;;;;;;;15.73;42.69;99979.38;5130639;27;20034;-35
2022/04/06 08:17:06;;;;;;;8.52;5.75;;;;;;;15.93;42.10;99976.88;5112388;27;20063;-33
2022/04/06 08:19:32;;;;;;;9.35;5.93;;;;;;;15.93;40.85;99995.69;5130735;27;20493;-29
2022/04/06 08:21:57;;;;;;;10.23;6.32;;;;;;;15.84;41.23;99973.03;5130613;27;20463;-31
2022/04/06 08:24:23;;;;;;;10.38;6.30;;;;;;;16.14;41.70;99974.34;5130682;27;20027;-31
2022/04/06 08:26:48;;;;;;;9.40;5.72;;;;;;;16.32;40.64;99963.16;5130377;27;20026;-33
2022/04/06 08:29:14;;;;;;;9.80;6.63;;;;;;;16.92;41.27;99976.44;5111918;27;20037;-30
2022/04/06 08:31:39;;;;;;;7.40;5.45;;;;;;;16.74;40.61;99977.69;5126630;27;20103;-34
2022/04/06 08:34:06;;;;;;;8.30;5.70;;;;;;;17.15;39.60;99984.09;5115995;27;20100;-31
2022/04/06 08:36:32;;;;;;;8.40;6.13;;;;;;;17.44;38.88;99979.03;5110679;27;20594;-32
2022/04/06 08:38:59;;;;;;;10.88;5.45;;;;;;;17.23;39.31;99962.00;5091220;28;20127;-30
2022/04/06 08:41:26;;;;;;;11.50;5.45;;;;;;;17.21;38.10;99982.22;5091167;28;20032;-30
2022/04/06 08:43:52;;;;;;;8.80;5.57;;;;;;;17.05;39.35;99949.81;5091504;28;20031;-33
2022/04/06 08:46:20;;;;;;;10.77;5.15;;;;;;;17.46;38.52;99978.78;5091869;28;20031;-32
2022/04/06 08:48:49;;;;;;;9.00;5.97;;;;;;;17.32;37.93;99959.59;5092093;28;20031;-32
2022/04/06 08:51:16;;;;;;;7.85;5.00;;;;;;;17.64;36.20;99970.19;5110489;28;20027;-29
2022/04/06 08:53:42;;;;;;;8.77;5.10;;;;;;;17.70;37.86;99956.72;5091926;28;20528;-30
2022/04/06 08:56:08;;;;;;;9.85;5.00;;;;;;;18.13;38.64;99959.97;5092138;28;20466;-29
2022/04/06 08:58:34;;;;;;;8.35;5.05;;;;;;;17.89;38.49;99949.72;5110316;28;20019;-30
2022/04/06 09:01:00;;;;;;;7.30;4.18;;;;;;;17.90;37.47;99966.69;5110468;28;20036;-30
2022/04/06 09:03:25;;;;;;;8.35;4.93;;;;;;;18.14;37.30;99964.28;5110478;28;20030;-33
2022/04/06 09:06:01;;;;;;;8.45;4.53;;;;;;;18.61;36.96;99960.41;5110435;28;20035;-30
2022/04/06 09:08:35;;;;;;;7.95;4.60;;;;;;;18.86;35.96;99957.66;5110764;28;20033;-29
2022/04/06 09:11:29;;;;;;;6.57;4.25;;;;;;;18.73;35.38;99957.41;5109636;28;20774;-31
2022/04/06 09:14:02;;;;;;;7.00;4.15;;;;;;;19.09;35.79;99931.06;5109071;28;20116;-31
2022/04/06 09:16:32;;;;;;;13.40;5.18;;;;;;;19.11;36.79;99938.91;5110173;28;20035;-31
2022/04/06 09:19:06;;;;;;;9.07;4.30;;;;;;;19.26;36.19;99933.38;5109866;28;20024;-30
2022/04/06 09:21:38;;;;;;;8.48;4.30;;;;;;;19.25;33.53;99915.56;5091747;28;20127;-29
2022/04/06 09:24:03;;;;;;;5.65;3.67;;;;;;;19.56;34.59;99923.47;5091704;28;20031;-29
2022/04/06 09:26:31;;;;;;;8.13;3.97;;;;;;;19.70;33.55;99924.44;5110140;28;20032;-29
2022/04/06 09:28:57;;;;;;;6.78;3.80;;;;;;;20.00;32.40;99915.28;5109705;28;20051;-30
2022/04/06 09:31:23;;;;;;;10.73;4.43;;;;;;;20.00;34.57;99899.03;5091537;28;20070;-33
2022/04/06 09:33:56;;;;;;;6.38;3.70;;;;;;;20.22;32.25;99905.84;5109670;28;20105;-31
2022/04/06 09:36:22;;;;;;;7.07;3.90;;;;;;;19.98;32.00;99906.63;5091333;28;20026;-29
2022/04/06 09:38:49;;;;;;;8.18;3.85;;;;;;;19.72;33.17;99905.25;5109879;28;20035;-37
2022/04/06 09:41:15;;;;;;;7.30;3.80;;;;;;;19.94;33.12;99905.59;5109862;28;20093;-29
2022/04/06 09:43:44;;;;;;;7.35;3.63;;;;;;;20.04;31.56;99916.31;5109658;28;20257;-29
2022/04/06 09:49:00;;;;;;;6.55;3.88;;;;;;;21.21;31.07;99902.47;5109183;28;20039;-29
2022/04/06 09:51:26;;;;;;;6.00;3.47;;;;;;;20.98;30.26;99895.22;5109562;28;20031;-29
2022/04/06 09:53:54;;;;;;;7.45;3.47;;;;;;;21.07;29.87;99898.88;5109567;28;20024;-31
2022/04/06 09:56:21;;;;;;;5.38;3.20;;;;;;;20.84;30.10;99885.09;5090979;28;20056;-29
2022/04/06 09:58:48;;;;;;;6.47;3.45;;;;;;;21.30;27.67;99902.63;5091078;28;20128;-32
2022/04/06 10:01:15;;;;;;;5.78;3.40;;;;;;;21.15;27.80;99890.09;5109101;28;20031;-29
2022/04/06 10:03:48;;;;;;;6.95;3.50;;;;;;;21.33;28.25;99891.19;5091050;28;20039;-31
2022/04/06 10:06:14;;;;;;;8.18;3.45;;;;;;;21.18;25.87;99894.91;5109552;28;20475;-33
2022/04/06 10:08:39;;;;;;;6.75;3.30;;;;;;;21.38;24.61;99887.59;5107907;28;20027;-29
2022/04/06 10:11:05;;;;;;;7.35;3.85;;;;;;;21.43;24.92;99890.22;5108690;28;20026;-31
2022/04/06 10:13:32;;;;;;;6.13;3.20;;;;;;;21.88;25.23;99885.13;5090915;28;20042;-28
2022/04/06 10:15:58;;;;;;;6.13;3.20;;;;;;;22.32;26.98;99872.16;5090619;28;20054;-29
2022/04/06 10:18:30;;;;;;;8.52;3.22;;;;;;;22.51;26.46;99863.88;5090831;28;20027;-34
2022/04/06 10:21:28;;;;;;;6.18;3.28;;;;;;;22.96;26.36;99874.88;5108978;28;20027;-30
2022/04/06 10:24:05;;;;;;;;;;;;;;;22.30;25.33;99864.31;5090952;28;20020;-29
2022/04/06 10:26:46;;;;;;;;;;;;;;;22.74;25.09;99868.31;5090856;28;19915;-30
2022/04/06 10:29:11;;;;;;;4.88;3.00;;;;;;;22.59;24.24;99863.19;5108572;28;19978;-29
2022/04/06 10:31:37;;;;;;;6.32;3.22;;;;;;;22.77;24.36;99851.38;5108859;28;20471;-29
2022/04/06 10:34:24;;;;;;;6.30;2.97;;;;;;;22.73;24.29;99857.72;5108641;28;20122;-31
2022/04/06 10:37:02;;;;;;;;;;;;;;;22.86;22.59;99860.41;5090668;28;20031;-31
2022/04/06 10:39:27;;;;;;;;;;;;;;;23.39;22.63;99858.13;5109287;28;20302;-29
2022/04/06 10:42:13;;;;;;;6.80;3.38;;;;;;;23.16;24.87;99852.69;5108965;28;19912;-29
2022/04/06 10:44:40;;;;;;;5.57;3.05;;;;;;;23.20;23.48;99834.63;5090465;28;20548;-29
2022/04/06 10:47:08;;;;;;;6.40;3.10;;;;;;;23.26;22.85;99846.22;5090181;28;20024;-29
2022/04/06 10:49:34;;;;;;;6.72;3.40;;;;;;;23.86;24.34;99851.25;5108679;28;20028;-32
2022/04/06 10:52:17;;;;;;;5.15;2.88;;;;;;;24.24;21.94;99849.97;5090451;28;20577;-33
2022/04/06 10:54:43;;;;;;;5.22;2.90;;;;;;;24.33;22.74;99839.06;5108764;28;20082;-29
2022/04/06 10:57:09;;;;;;;4.22;2.47;;;;;;;24.27;21.04;99841.13;5107463;28;20455;-29
2022/04/06 10:59:35;;;;;;;4.30;3.00;;;;;;;24.25;21.31;99836.03;5089119;28;20047;-37
2022/04/06 11:02:26;;;;;;;5.05;2.88;;;;;;;24.33;22.76;99834.44;5107265;28;20027;-35
2022/04/06 11:04:52;;;;;;;8.13;3.38;;;;;;;24.11;21.77;99827.16;5088860;28;20032;-29
2022/04/06 11:10:28;;;;;;;4.38;2.75;;;;;;;24.96;23.22;99834.22;5107874;28;20077;-30
2022/04/06 11:13:06;;;;;;;5.80;3.10;;;;;;;25.33;20.71;99829.25;5088929;28;20403;-33
2022/04/06 11:15:41;;;;;;;6.00;2.80;;;;;;;24.74;21.52;99822.34;5089292;28;20410;-32
2022/04/06 11:18:47;;;;;;;8.65;3.25;;;;;;;25.05;22.17;99816.75;5089176;28;20107;-31
2022/04/06 11:21:14;;;;;;;6.40;3.10;;;;;;;25.29;20.53;99814.66;5089377;28;20024;-30
2022/04/06 11:23:41;;;;;;;6.18;4.00;;;;;;;24.80;21.93;99820.25;5089157;28;20024;-31
2022/04/06 11:26:06;;;;;;;6.43;3.28;;;;;;;24.84;20.72;99813.84;5089217;28;20042;-32
2022/04/06 11:28:32;;;;;;;7.57;3.47;;;;;;;25.16;22.13;99805.50;5107281;28;20392;-29
2022/04/06 11:31:02;;;;;;;6.10;3.63;;;;;;;25.67;21.63;99788.22;5088493;28;20482;-32
2022/04/06 11:33:38;;;;;;;9.18;3.10;;;;;;;25.97;20.21;99801.97;5088596;28;20058;-29
2022/04/06 11:36:17;;;;;;;6.47;3.20;;;;;;;26.19;20.94;99776.25;5110110;28;20580;-29
2022/04/06 11:38:49;;;;;;;8.48;3.25;;;;;;;25.89;21.11;99793.75;5092422;28;20038;-29